Time;durP1;ratioP1;P1;durP2;ratioP2;P2;SDS_P1;SDS_P2;PMS_P1;PMS_P2;Temp;Humidity;BMP_temperature;BMP_pressure;BME280_temperature;BME280_humidity;BME280_pressure;Samples;Min_cycle;Max_cycle;Signal;HPM_P1;HPM_P2
2022/03/04 00:00:26;;;;;;;21.17;10.05;;;-0.20;99.90;;;;;;6125298;23;20483;-85
2022/03/04 00:02:53;;;;;;;18.40;9.10;;;-0.30;99.90;;;;;;6125603;23;20014;-86
2022/03/04 00:05:19;;;;;;;21.92;11.13;;;-0.20;99.90;;;;;;6150152;23;20021;-85
2022/03/04 00:07:45;;;;;;;21.50;10.32;;;-0.30;99.90;;;;;;6125372;23;20013;-84
2022/03/04 00:10:11;;;;;;;23.52;10.93;;;-0.30;99.90;;;;;;6101119;23;20048;-85
2022/03/04 00:12:37;;;;;;;19.08;9.05;;;-0.40;99.90;;;;;;6101010;23;20028;-85
2022/03/04 00:15:03;;;;;;;18.20;9.68;;;-0.40;99.90;;;;;;6150462;23;20088;-85
2022/03/04 00:17:29;;;;;;;21.80;9.93;;;-0.40;99.90;;;;;;6101322;23;20029;-85
2022/03/04 00:19:55;;;;;;;23.30;9.35;;;-0.50;99.90;;;;;;6149890;23;20021;-85
2022/03/04 00:22:21;;;;;;;23.02;9.73;;;-0.50;99.90;;;;;;6101023;23;20045;-85
2022/03/04 00:24:46;;;;;;;23.80;10.13;;;-0.50;99.90;;;;;;6125411;23;20009;-85
2022/03/04 00:27:12;;;;;;;22.23;9.73;;;-0.60;99.90;;;;;;6101028;23;20100;-86
2022/03/04 00:29:38;;;;;;;21.42;10.35;;;-0.60;99.90;;;;;;6125379;23;20080;-85
2022/03/04 00:32:04;;;;;;;18.80;9.43;;;-0.50;99.90;;;;;;6077137;23;20053;-85
2022/03/04 00:34:30;;;;;;;25.60;11.02;;;-0.60;99.90;;;;;;6100906;23;20080;-85
2022/03/04 00:36:55;;;;;;;23.80;10.23;;;-0.60;99.90;;;;;;6076533;23;20021;-85
2022/03/04 00:39:23;;;;;;;21.27;10.27;;;-0.60;99.90;;;;;;6100829;23;20021;-85
2022/03/04 00:41:49;;;;;;;23.05;11.35;;;-0.70;99.90;;;;;;6100369;23;20045;-85
2022/03/04 00:44:14;;;;;;;21.83;9.85;;;-0.70;99.90;;;;;;6100741;23;20013;-85
2022/03/04 00:46:40;;;;;;;25.40;10.48;;;-0.70;99.90;;;;;;6100963;23;20017;-85
2022/03/04 00:49:06;;;;;;;21.90;11.75;;;-0.80;99.90;;;;;;6101171;23;20018;-85
2022/03/04 00:51:32;;;;;;;22.63;10.02;;;-0.80;99.90;;;;;;6124947;23;20092;-85
2022/03/04 00:53:57;;;;;;;18.35;9.43;;;-0.90;99.90;;;;;;6099292;23;20500;-85
2022/03/04 00:56:23;;;;;;;25.45;10.85;;;-0.90;99.90;;;;;;6097860;23;20029;-85
2022/03/04 00:58:49;;;;;;;19.38;10.40;;;-0.90;99.90;;;;;;6072750;23;20013;-85
2022/03/04 01:01:16;;;;;;;20.70;10.63;;;-0.90;99.90;;;;;;6096609;23;20104;-85
2022/03/04 01:03:41;;;;;;;19.80;10.60;;;-0.10;99.90;;;;;;6100568;23;20444;-85
2022/03/04 01:06:08;;;;;;;22.05;10.27;;;-1.00;99.90;;;;;;6100668;23;20045;-85
2022/03/04 01:08:33;;;;;;;21.00;10.48;;;-1.00;99.90;;;;;;6076711;23;20017;-85
2022/03/04 01:11:00;;;;;;;22.27;11.20;;;-1.10;99.90;;;;;;6100323;23;20028;-85
2022/03/04 01:13:26;;;;;;;23.15;10.50;;;-1.10;99.90;;;;;;6125191;23;20052;-85
2022/03/04 01:15:52;;;;;;;23.83;11.73;;;-1.10;99.90;;;;;;6124947;23;20029;-85
2022/03/04 01:18:18;;;;;;;20.30;10.50;;;-1.20;99.90;;;;;;6125052;23;20052;-84
2022/03/04 01:20:43;;;;;;;27.40;11.55;;;-0.10;99.90;;;;;;6100642;23;20045;-85
2022/03/04 01:23:09;;;;;;;26.55;11.15;;;0.10;99.90;;;;;;6124517;23;20048;-85
2022/03/04 01:25:35;;;;;;;21.83;10.50;;;-1.30;99.90;;;;;;6125326;23;20059;-85
2022/03/04 01:28:01;;;;;;;23.60;10.50;;;-1.40;99.90;;;;;;6100203;23;20025;-85
2022/03/04 01:30:27;;;;;;;22.98;10.15;;;-1.40;99.90;;;;;;6124854;23;20014;-85
2022/03/04 01:32:53;;;;;;;23.50;10.88;;;-1.50;99.90;;;;;;6124569;23;20029;-85
2022/03/04 01:35:19;;;;;;;21.80;10.38;;;-1.50;99.90;;;;;;6100499;23;20024;-85
2022/03/04 01:37:44;;;;;;;25.70;12.30;;;-1.50;99.90;;;;;;6100723;23;20397;-85
2022/03/04 01:40:12;;;;;;;24.52;11.82;;;-1.60;99.90;;;;;;6076240;23;20021;-84
2022/03/04 01:42:38;;;;;;;25.52;11.70;;;-1.60;99.90;;;;;;6125034;23;20028;-85
2022/03/04 01:45:06;;;;;;;24.38;11.95;;;-1.60;99.90;;;;;;6100808;23;20100;-85
2022/03/04 01:47:33;;;;;;;22.85;10.95;;;-1.70;99.90;;;;;;6124991;23;20033;-84
2022/03/04 01:49:59;;;;;;;23.27;11.73;;;-1.60;99.90;;;;;;6124788;23;20021;-85
2022/03/04 01:52:24;;;;;;;25.20;11.77;;;-1.70;99.90;;;;;;6100347;23;20025;-85
2022/03/04 01:54:50;;;;;;;21.52;11.07;;;-1.70;99.90;;;;;;6124651;23;20149;-85
2022/03/04 01:57:19;;;;;;;21.10;10.70;;;-1.70;99.90;;;;;;6101015;23;20063;-85
2022/03/04 01:59:44;;;;;;;22.88;10.50;;;-1.80;99.90;;;;;;6099938;23;20018;-85
2022/03/04 02:02:11;;;;;;;24.15;10.63;;;-1.80;99.90;;;;;;6099961;23;20104;-85
2022/03/04 02:04:36;;;;;;;28.00;12.82;;;-1.80;99.90;;;;;;6099506;23;20445;-85
2022/03/04 02:07:03;;;;;;;26.67;11.63;;;-1.80;99.90;;;;;;6124619;23;20019;-85
2022/03/04 02:09:28;;;;;;;28.08;13.48;;;-1.80;99.90;;;;;;6125170;23;20064;-85
2022/03/04 02:11:54;;;;;;;26.58;11.45;;;-1.90;99.90;;;;;;6100287;23;20108;-84
2022/03/04 02:14:20;;;;;;;27.83;13.30;;;-1.90;99.90;;;;;;6100607;23;20029;-85
2022/03/04 02:16:50;;;;;;;24.83;12.30;;;-1.90;99.90;;;;;;6100674;23;20017;-85
2022/03/04 02:19:17;;;;;;;32.75;14.32;;;-0.20;99.90;;;;;;6100040;23;20025;-85
2022/03/04 02:21:55;;;;;;;31.13;13.50;;;-2.00;99.90;;;;;;6100966;23;20014;-85
2022/03/04 02:24:22;;;;;;;25.83;12.70;;;-2.00;99.90;;;;;;6101892;23;20014;-85
2022/03/04 02:26:49;;;;;;;28.95;13.00;;;-2.00;99.90;;;;;;6078118;23;20021;-85
2022/03/04 02:29:15;;;;;;;31.38;12.68;;;-2.10;99.90;;;;;;6102266;23;20018;-85
2022/03/04 02:31:41;;;;;;;34.33;15.15;;;-2.10;99.90;;;;;;6126009;23;20029;-85
2022/03/04 02:34:07;;;;;;;29.20;12.98;;;-2.10;99.90;;;;;;6100656;23;20017;-85
2022/03/04 02:36:33;;;;;;;31.20;13.38;;;-2.10;99.90;;;;;;6050351;23;20028;-85
2022/03/04 02:38:59;;;;;;;30.40;13.88;;;-2.10;99.90;;;;;;6097359;23;20110;-85
2022/03/04 02:41:25;;;;;;;34.50;14.50;;;-2.10;99.90;;;;;;6073563;23;20458;-85
2022/03/04 02:43:51;;;;;;;33.53;13.88;;;-1.00;99.90;;;;;;6073476;23;20024;-85
2022/03/04 02:46:16;;;;;;;36.85;16.02;;;-1.40;99.90;;;;;;6073118;23;20041;-85
2022/03/04 02:48:42;;;;;;;34.67;15.25;;;-2.10;99.90;;;;;;6097025;23;20014;-85
2022/03/04 02:51:08;;;;;;;37.58;14.50;;;-2.10;99.90;;;;;;6049590;23;20026;-84
2022/03/04 02:53:34;;;;;;;34.95;15.88;;;-1.00;99.90;;;;;;6073373;23;20021;-85
2022/03/04 02:56:00;;;;;;;34.67;15.25;;;-2.10;99.90;;;;;;6073366;23;20021;-85
2022/03/04 02:58:25;;;;;;;35.92;15.50;;;-2.00;99.90;;;;;;6072960;23;20465;-84
2022/03/04 03:00:52;;;;;;;41.70;16.63;;;-0.90;99.90;;;;;;6025373;23;20022;-85
2022/03/04 03:03:17;;;;;;;41.22;17.70;;;-2.00;99.90;;;;;;6073106;23;20053;-85
2022/03/04 03:05:43;;;;;;;40.53;17.15;;;-1.90;99.90;;;;;;6073608;23;20480;-86
2022/03/04 03:08:09;;;;;;;42.60;17.63;;;-1.80;99.90;;;;;;6049013;23;20097;-85
2022/03/04 03:10:35;;;;;;;37.17;17.23;;;-1.80;99.90;;;;;;6072674;23;20080;-85
2022/03/04 03:13:01;;;;;;;37.70;17.38;;;-1.70;99.90;;;;;;6069944;23;20040;-85
2022/03/04 03:15:27;;;;;;;44.53;18.05;;;-1.70;99.90;;;;;;6098361;23;20024;-85
2022/03/04 03:17:54;;;;;;;40.75;16.75;;;-1.60;99.90;;;;;;6075868;23;20081;-85
2022/03/04 03:20:20;;;;;;;37.20;16.88;;;-1.60;99.90;;;;;;6073689;23;20045;-85
2022/03/04 03:22:46;;;;;;;41.40;16.75;;;-1.60;99.90;;;;;;6073903;23;20093;-85
2022/03/04 03:25:12;;;;;;;37.38;17.00;;;-1.50;99.90;;;;;;6074241;23;20400;-85
2022/03/04 03:27:38;;;;;;;44.17;16.88;;;-1.50;99.90;;;;;;6073866;23;20022;-85
2022/03/04 03:30:06;;;;;;;36.15;17.30;;;0.10;99.90;;;;;;6073313;23;20029;-85
2022/03/04 03:32:32;;;;;;;39.40;16.85;;;-1.40;99.90;;;;;;6073958;23;20022;-85
2022/03/04 03:34:58;;;;;;;38.70;17.50;;;-1.40;99.90;;;;;;6113233;23;20088;-85
2022/03/04 03:37:24;;;;;;;36.20;15.43;;;-1.40;99.90;;;;;;6106700;23;20032;-85
2022/03/04 03:39:50;;;;;;;38.65;17.92;;;-1.40;99.90;;;;;;6130590;23;20044;-85
2022/03/04 03:42:16;;;;;;;32.78;15.25;;;-1.40;99.90;;;;;;6127089;23;20500;-85
2022/03/04 03:44:42;;;;;;;40.00;17.70;;;-1.50;99.90;;;;;;6101618;23;20017;-86
2022/03/04 03:47:09;;;;;;;37.08;17.02;;;-1.20;99.90;;;;;;6101985;23;20024;-85
2022/03/04 03:49:36;;;;;;;36.88;16.40;;;-0.40;99.90;;;;;;6078905;23;20021;-85
2022/03/04 03:52:02;;;;;;;42.42;18.20;;;-0.10;99.90;;;;;;6078674;23;20133;-85
2022/03/04 03:54:27;;;;;;;34.22;16.23;;;-1.40;99.90;;;;;;6101666;23;20053;-85
2022/03/04 03:56:53;;;;;;;37.05;16.42;;;-1.40;99.90;;;;;;6102439;23;20080;-85
2022/03/04 03:59:19;;;;;;;38.85;16.25;;;-1.40;99.90;;;;;;6102177;23;20040;-85
2022/03/04 04:01:45;;;;;;;36.28;16.42;;;-1.40;99.90;;;;;;6102372;23;20018;-85
2022/03/04 04:04:14;;;;;;;35.47;16.55;;;-1.40;99.90;;;;;;6103763;23;20052;-85
2022/03/04 04:06:41;;;;;;;44.05;18.13;;;-1.40;99.90;;;;;;6079710;23;20018;-85
2022/03/04 04:09:08;;;;;;;39.17;17.45;;;-1.40;99.90;;;;;;6078213;23;20377;-85
2022/03/04 04:11:37;;;;;;;44.00;17.60;;;-1.30;99.90;;;;;;6127072;23;20473;-85
2022/03/04 04:14:09;;;;;;;39.85;17.17;;;-1.30;99.90;;;;;;6102860;23;20017;-84
2022/03/04 04:16:35;;;;;;;32.88;16.45;;;-1.40;99.90;;;;;;6127400;23;20084;-85
2022/03/04 04:19:01;;;;;;;32.85;15.23;;;-1.40;99.90;;;;;;6102511;23;20017;-85
2022/03/04 04:21:27;;;;;;;39.33;18.05;;;-0.50;99.90;;;;;;6078093;23;20097;-85
2022/03/04 04:23:54;;;;;;;42.08;17.65;;;-1.40;99.90;;;;;;6077861;23;20013;-85
2022/03/04 04:26:21;;;;;;;35.58;16.27;;;-1.40;99.90;;;;;;6126301;23;20088;-86
2022/03/04 04:28:46;;;;;;;38.60;16.58;;;0.00;99.90;;;;;;6126269;23;20017;-85
2022/03/04 04:31:13;;;;;;;32.50;15.48;;;-1.40;99.90;;;;;;6101356;23;20014;-85
2022/03/04 04:33:38;;;;;;;38.60;17.50;;;-1.40;99.90;;;;;;6126100;23;20017;-85
2022/03/04 04:36:05;;;;;;;36.92;17.42;;;-1.40;99.90;;;;;;6102072;23;20471;-85
2022/03/04 04:38:31;;;;;;;40.88;16.38;;;-1.30;99.90;;;;;;6101988;23;20024;-86
2022/03/04 04:40:57;;;;;;;35.03;17.45;;;0.40;99.90;;;;;;6111659;23;20060;-85
2022/03/04 04:43:23;;;;;;;43.10;17.27;;;-1.30;99.90;;;;;;6133392;23;20009;-83
2022/03/04 04:45:50;;;;;;;38.78;16.65;;;-1.30;99.90;;;;;;6132496;23;20049;-83
2022/03/04 04:48:16;;;;;;;35.58;16.25;;;-1.00;99.90;;;;;;6127161;23;20022;-85
2022/03/04 04:50:42;;;;;;;32.25;14.90;;;-1.30;99.90;;;;;;6088147;23;20026;-84
2022/03/04 04:53:08;;;;;;;32.28;14.93;;;-1.30;99.90;;;;;;6104507;23;20017;-84
2022/03/04 04:55:34;;;;;;;34.08;15.98;;;-1.30;99.90;;;;;;6103935;23;20093;-83
2022/03/04 04:58:00;;;;;;;32.35;14.90;;;-1.40;99.90;;;;;;6126852;23;20024;-86
2022/03/04 05:00:26;;;;;;;36.42;17.30;;;-1.40;99.90;;;;;;6125859;23;20022;-85
2022/03/04 05:02:52;;;;;;;33.90;15.52;;;-1.40;99.90;;;;;;6102535;23;20096;-84
2022/03/04 05:05:20;;;;;;;33.05;15.60;;;-1.40;99.90;;;;;;6127246;23;20024;-85
2022/03/04 05:07:46;;;;;;;37.33;16.33;;;-1.50;99.90;;;;;;6104698;23;20028;-86
2022/03/04 05:10:12;;;;;;;34.10;16.05;;;-1.40;99.90;;;;;;6125570;23;20028;-86
2022/03/04 05:12:39;;;;;;;32.33;15.68;;;-1.40;99.90;;;;;;6124828;23;20025;-85
2022/03/04 05:15:06;;;;;;;35.45;14.90;;;-1.40;99.90;;;;;;6101739;23;20128;-86
2022/03/04 05:17:32;;;;;;;37.63;16.58;;;-1.50;99.90;;;;;;6101506;23;20457;-85
2022/03/04 05:19:58;;;;;;;37.45;16.20;;;-0.50;99.90;;;;;;6101510;23;20022;-85
2022/03/04 05:22:24;;;;;;;35.70;15.85;;;-1.50;99.90;;;;;;6078072;23;20521;-85
2022/03/04 05:24:49;;;;;;;35.45;15.57;;;-1.50;99.90;;;;;;6101144;23;20017;-86
2022/03/04 05:27:15;;;;;;;34.10;14.52;;;-1.50;99.90;;;;;;6101497;23;20511;-86
2022/03/04 05:29:41;;;;;;;39.95;17.10;;;-1.50;99.90;;;;;;6074762;23;20028;-85
2022/03/04 05:32:07;;;;;;;35.17;15.98;;;-1.50;99.90;;;;;;6076897;23;20014;-85
2022/03/04 05:34:34;;;;;;;38.88;16.77;;;-1.50;99.90;;;;;;6071916;23;20057;-85
2022/03/04 05:36:59;;;;;;;42.42;17.85;;;-0.80;99.90;;;;;;6071954;23;20018;-85
2022/03/04 05:39:25;;;;;;;37.95;16.23;;;-1.50;99.90;;;;;;6048295;23;20030;-86
2022/03/04 05:41:51;;;;;;;31.85;14.52;;;-1.50;99.90;;;;;;6072578;23;20018;-85
2022/03/04 05:44:16;;;;;;;30.65;15.50;;;-1.50;99.90;;;;;;6048850;23;20025;-85
2022/03/04 05:46:42;;;;;;;38.33;16.65;;;-1.50;99.90;;;;;;6072516;23;20105;-85
2022/03/04 05:49:08;;;;;;;39.50;17.52;;;-1.50;99.90;;;;;;6048043;23;20018;-85
2022/03/04 05:51:34;;;;;;;35.70;16.17;;;-1.50;99.90;;;;;;6024446;23;20096;-85
2022/03/04 05:54:00;;;;;;;37.30;16.20;;;-1.50;99.90;;;;;;6048470;23;20398;-86
2022/03/04 05:56:26;;;;;;;41.58;18.52;;;-1.40;99.90;;;;;;6072941;23;20058;-85
2022/03/04 05:58:51;;;;;;;39.78;16.67;;;-1.50;99.90;;;;;;6098582;23;20449;-85
2022/03/04 06:01:17;;;;;;;32.53;16.48;;;-1.50;99.90;;;;;;6049911;23;20018;-85
2022/03/04 06:03:44;;;;;;;36.70;16.13;;;-1.40;99.90;;;;;;6049604;23;20453;-85
2022/03/04 06:06:13;;;;;;;38.88;17.30;;;-1.40;99.90;;;;;;6073222;23;20014;-85
2022/03/04 06:08:39;;;;;;;36.95;17.02;;;-1.40;99.90;;;;;;6073926;23;20045;-86
2022/03/04 06:11:09;;;;;;;40.55;18.13;;;-0.90;99.90;;;;;;6073410;23;20053;-85
2022/03/04 06:13:39;;;;;;;44.20;18.30;;;-1.40;99.90;;;;;;6073584;23;20025;-85
2022/03/04 06:16:05;;;;;;;37.42;16.55;;;-1.40;99.90;;;;;;6073061;23;20025;-85
2022/03/04 06:18:32;;;;;;;39.20;16.60;;;-1.40;99.90;;;;;;6073265;23;20041;-85
2022/03/04 06:20:58;;;;;;;37.38;17.10;;;-1.40;99.90;;;;;;6048671;23;20018;-85
2022/03/04 06:23:24;;;;;;;36.95;17.23;;;-0.80;99.90;;;;;;6025488;23;20072;-85
2022/03/04 06:25:50;;;;;;;36.45;16.02;;;-1.30;99.90;;;;;;6073746;23;20018;-85
2022/03/04 06:28:16;;;;;;;38.72;17.00;;;-1.40;99.90;;;;;;6049970;23;20053;-85
2022/03/04 06:30:42;;;;;;;41.63;17.63;;;-1.40;99.90;;;;;;6072726;23;20101;-85
2022/03/04 06:35:54;;;;;;;38.15;17.25;;;-1.40;99.90;;;;;;6116113;23;20056;-85
2022/03/04 06:38:20;;;;;;;45.55;16.98;;;-1.30;99.90;;;;;;6126107;23;20049;-86
2022/03/04 06:40:47;;;;;;;40.88;18.20;;;-1.30;99.90;;;;;;6078165;23;20092;-85
2022/03/04 06:43:14;;;;;;;37.00;18.15;;;-0.80;99.90;;;;;;6102410;23;20060;-85
2022/03/04 06:45:44;;;;;;;41.20;18.58;;;-0.80;99.90;;;;;;6102281;23;20036;-85
2022/03/04 06:48:14;;;;;;;37.83;17.48;;;-1.30;99.90;;;;;;6078029;23;20515;-85
2022/03/04 06:50:41;;;;;;;38.65;16.60;;;-1.30;99.90;;;;;;6102209;23;20029;-85
2022/03/04 06:53:07;;;;;;;41.40;16.77;;;-1.30;99.90;;;;;;6078280;23;20832;-85
2022/03/04 06:55:33;;;;;;;46.95;19.83;;;-1.30;99.90;;;;;;6101977;23;20021;-85
2022/03/04 06:57:59;;;;;;;43.22;17.90;;;-1.30;99.90;;;;;;6126166;23;20025;-86
2022/03/04 07:00:25;;;;;;;44.00;19.15;;;-1.30;99.90;;;;;;6101591;23;20445;-85
2022/03/04 07:02:51;;;;;;;46.90;18.20;;;-1.30;99.90;;;;;;6102049;23;20024;-85
2022/03/04 07:05:17;;;;;;;50.03;20.27;;;-1.30;99.90;;;;;;6101982;23;20100;-84
2022/03/04 07:07:43;;;;;;;45.40;19.58;;;-1.30;99.90;;;;;;6101508;23;20056;-85
2022/03/04 07:10:09;;;;;;;49.03;20.65;;;-1.20;99.90;;;;;;6077692;23;20021;-86
2022/03/04 07:12:36;;;;;;;47.53;18.50;;;-1.20;99.90;;;;;;6126317;23;20020;-85
2022/03/04 07:15:03;;;;;;;36.30;16.10;;;-1.10;99.90;;;;;;6125777;23;20021;-86
2022/03/04 07:17:29;;;;;;;40.70;18.50;;;-1.10;99.90;;;;;;6077707;23;20040;-86
2022/03/04 07:19:54;;;;;;;41.75;17.30;;;-1.20;99.90;;;;;;6101432;23;20505;-85
2022/03/04 07:22:20;;;;;;;31.92;16.73;;;0.60;99.90;;;;;;6077925;23;20017;-85
2022/03/04 07:24:46;;;;;;;37.20;17.33;;;0.50;99.90;;;;;;6102093;23;20029;-85
2022/03/04 07:27:11;;;;;;;34.85;16.95;;;-1.10;99.90;;;;;;6053401;23;20048;-85
2022/03/04 07:29:37;;;;;;;40.95;17.00;;;-1.10;99.90;;;;;;6101537;23;20072;-85
2022/03/04 07:32:03;;;;;;;41.15;17.98;;;-1.10;99.90;;;;;;6101779;23;20349;-85
2022/03/04 07:34:29;;;;;;;40.33;16.95;;;-1.10;99.90;;;;;;6077640;23;20530;-86
2022/03/04 07:36:54;;;;;;;38.40;16.70;;;-1.10;99.90;;;;;;6099853;23;20097;-85
2022/03/04 07:39:20;;;;;;;43.42;17.88;;;-1.10;99.90;;;;;;6101965;23;20017;-85
2022/03/04 07:41:48;;;;;;;46.75;19.20;;;-1.00;99.90;;;;;;6126770;23;20060;-85
2022/03/04 07:44:14;;;;;;;39.17;17.60;;;-1.00;99.90;;;;;;6078154;23;20069;-85
2022/03/04 07:46:40;;;;;;;44.40;18.83;;;-1.00;99.90;;;;;;6126509;23;20060;-85
2022/03/04 07:49:06;;;;;;;42.50;18.75;;;-0.90;99.90;;;;;;6078053;23;20013;-85
2022/03/04 07:51:33;;;;;;;44.45;17.23;;;-0.90;99.90;;;;;;6102285;23;20088;-86
2022/03/04 07:53:59;;;;;;;39.97;16.40;;;-0.90;99.90;;;;;;6126293;23;20029;-85
2022/03/04 07:56:25;;;;;;;36.95;16.85;;;-0.80;99.90;;;;;;6101545;23;20013;-86
2022/03/04 07:58:51;;;;;;;34.80;15.73;;;-0.80;99.90;;;;;;6102052;23;20013;-85
2022/03/04 08:01:17;;;;;;;39.47;17.30;;;-0.80;99.90;;;;;;6101608;23;20483;-86
2022/03/04 08:03:43;;;;;;;40.20;17.02;;;-0.80;99.90;;;;;;6126641;23;20349;-85
2022/03/04 08:06:09;;;;;;;37.72;16.15;;;-0.30;99.90;;;;;;6054393;23;20024;-85
2022/03/04 08:08:35;;;;;;;41.22;18.05;;;-0.80;99.90;;;;;;6126305;23;20096;-86
2022/03/04 08:11:01;;;;;;;36.00;16.98;;;-0.70;99.90;;;;;;6100297;23;20025;-86
2022/03/04 08:13:28;;;;;;;36.10;16.25;;;-0.60;99.90;;;;;;6098765;23;20021;-86
2022/03/04 08:15:54;;;;;;;39.22;17.20;;;-0.60;99.90;;;;;;6099537;23;20028;-86
2022/03/04 08:18:19;;;;;;;39.92;15.77;;;-0.50;99.90;;;;;;6100573;23;20017;-86
2022/03/04 08:20:45;;;;;;;39.10;16.63;;;-0.60;99.90;;;;;;6100471;23;20469;-86
2022/03/04 08:23:11;;;;;;;39.67;17.10;;;-0.50;99.90;;;;;;6077823;23;20053;-86
2022/03/04 08:25:38;;;;;;;39.28;17.60;;;-0.40;99.90;;;;;;6102520;23;20817;-85
2022/03/04 08:28:05;;;;;;;34.95;17.80;;;-0.40;99.90;;;;;;6077306;23;20018;-85
2022/03/04 08:30:30;;;;;;;38.33;17.60;;;1.00;99.90;;;;;;6126142;23;20476;-86
2022/03/04 08:32:56;;;;;;;31.80;16.48;;;-0.30;99.90;;;;;;6077585;23;20021;-85
2022/03/04 08:35:22;;;;;;;36.63;16.42;;;-0.30;99.90;;;;;;6078067;23;20084;-86
2022/03/04 08:37:48;;;;;;;42.20;18.40;;;-0.30;99.90;;;;;;6126286;23;20017;-86
2022/03/04 08:40:14;;;;;;;39.17;18.23;;;-0.30;99.90;;;;;;6077924;23;20117;-86
2022/03/04 08:42:42;;;;;;;35.58;16.17;;;0.30;99.90;;;;;;6101468;23;20409;-86
2022/03/04 08:45:09;;;;;;;42.53;16.70;;;1.20;99.90;;;;;;6102061;23;20049;-86
2022/03/04 08:47:36;;;;;;;33.83;16.42;;;-0.10;99.90;;;;;;6101579;23;20128;-86
2022/03/04 08:50:02;;;;;;;36.08;15.88;;;-0.10;99.90;;;;;;6078146;23;20021;-85
2022/03/04 08:52:28;;;;;;;40.30;17.52;;;-0.10;99.90;;;;;;6101594;23;20021;-86
2022/03/04 08:54:54;;;;;;;43.80;17.50;;;-0.10;99.90;;;;;;6126017;23;20029;-85
2022/03/04 08:57:20;;;;;;;37.13;17.75;;;0.10;99.90;;;;;;6077390;23;20022;-86
2022/03/04 08:59:46;;;;;;;37.95;18.20;;;0.20;99.90;;;;;;6077351;23;20025;-86
2022/03/04 09:02:12;;;;;;;36.42;16.15;;;1.70;99.90;;;;;;6101685;23;20018;-86
2022/03/04 09:04:37;;;;;;;42.33;18.20;;;0.20;99.90;;;;;;6101498;23;20021;-86
2022/03/04 09:07:06;;;;;;;37.92;17.67;;;1.80;99.90;;;;;;6101634;23;20453;-86
2022/03/04 09:09:35;;;;;;;39.47;17.77;;;2.10;99.90;;;;;;6125416;23;20056;-86
2022/03/04 09:12:01;;;;;;;35.92;16.65;;;1.20;99.90;;;;;;6077903;23;20483;-86
2022/03/04 09:14:27;;;;;;;36.03;16.27;;;1.20;99.90;;;;;;6077743;23;20055;-86
2022/03/04 09:16:53;;;;;;;37.55;18.52;;;1.10;99.90;;;;;;6077597;23;20390;-86
2022/03/04 09:19:19;;;;;;;34.10;17.77;;;2.70;99.90;;;;;;6077614;23;20138;-86
2022/03/04 09:21:47;;;;;;;39.40;17.20;;;2.20;99.90;;;;;;6077625;23;20074;-86
2022/03/04 09:24:13;;;;;;;42.67;18.23;;;2.90;99.90;;;;;;6077710;23;20044;-86
2022/03/04 09:26:39;;;;;;;33.78;17.42;;;3.80;99.90;;;;;;6101737;23;20105;-86
2022/03/04 09:29:05;;;;;;;29.83;14.60;;;4.90;99.90;;;;;;6101602;23;20049;-87
2022/03/04 09:31:31;;;;;;;31.88;15.43;;;5.40;99.90;;;;;;6100925;23;20100;-87
2022/03/04 09:33:57;;;;;;;31.67;15.73;;;4.40;99.90;;;;;;6053741;23;20067;-86
2022/03/04 09:36:23;;;;;;;30.88;17.27;;;4.50;99.90;;;;;;6101373;23;20021;-86
2022/03/04 09:38:49;;;;;;;31.75;16.92;;;3.10;99.90;;;;;;6101110;23;20013;-86
2022/03/04 09:41:15;;;;;;;31.88;16.45;;;3.10;99.90;;;;;;6101306;23;20350;-86
2022/03/04 09:43:42;;;;;;;33.88;17.63;;;4.10;99.90;;;;;;6125666;23;20656;-86
2022/03/04 09:46:08;;;;;;;28.95;16.33;;;3.40;99.90;;;;;;6101390;23;20020;-86
2022/03/04 09:48:39;;;;;;;32.58;16.38;;;4.70;99.90;;;;;;6125837;23;20657;-86
2022/03/04 09:51:07;;;;;;;29.80;17.05;;;3.60;99.90;;;;;;6055894;23;20021;-86
2022/03/04 09:53:33;;;;;;;28.50;15.43;;;5.00;99.90;;;;;;6101362;23;20017;-86
2022/03/04 09:55:59;;;;;;;35.60;16.55;;;4.40;99.90;;;;;;6077412;23;20382;-86
2022/03/04 09:58:25;;;;;;;27.45;14.90;;;4.50;99.90;;;;;;6077689;23;20061;-87
2022/03/04 10:00:50;;;;;;;33.35;16.75;;;5.70;99.90;;;;;;6101244;23;20080;-87
2022/03/04 10:03:29;;;;;;;28.75;16.63;;;6.30;99.90;;;;;;6077286;23;20014;-86
2022/03/04 10:05:56;;;;;;;28.27;15.60;;;7.10;99.90;;;;;;6125697;23;20469;-87
2022/03/04 10:08:23;;;;;;;27.83;16.63;;;8.20;99.90;;;;;;6053390;23;20025;-87
2022/03/04 10:10:55;;;;;;;28.00;16.67;;;8.80;99.90;;;;;;6101374;23;20052;-88
2022/03/04 10:13:47;;;;;;;28.38;16.65;;;9.40;99.60;;;;;;6101173;23;20036;-87
2022/03/04 10:16:21;;;;;;;28.20;15.68;;;8.50;96.90;;;;;;6101080;23;20021;-86
2022/03/04 10:19:13;;;;;;;26.73;16.30;;;9.30;99.10;;;;;;6101250;23;20018;-87
2022/03/04 10:21:45;;;;;;;27.30;17.77;;;9.40;96.70;;;;;;6101526;23;20049;-87
2022/03/04 10:24:11;;;;;;;;;;;9.10;97.60;;;;;;6124822;23;20014;-87
2022/03/04 10:26:36;;;;;;;29.80;17.27;;;8.90;96.10;;;;;;6099257;23;19948;-88
2022/03/04 10:29:23;;;;;;;27.38;16.98;;;9.50;98.10;;;;;;6099486;23;20017;-87
2022/03/04 10:32:13;;;;;;;27.73;17.48;;;9.50;95.50;;;;;;6125268;23;20024;-87
2022/03/04 10:34:46;;;;;;;29.52;17.98;;;9.90;94.90;;;;;;6125118;23;20098;-87
2022/03/04 10:37:13;;;;;;;27.75;17.52;;;10.30;96.60;;;;;;6102715;23;20028;-86
2022/03/04 10:40:17;;;;;;;26.92;15.45;;;10.60;95.80;;;;;;6106980;23;20397;-84
2022/03/04 10:43:00;;;;;;;29.35;17.83;;;9.70;93.30;;;;;;6133565;23;20017;-86
2022/03/04 10:45:30;;;;;;;27.23;16.45;;;9.60;93.20;;;;;;6127463;23;20049;-86
2022/03/04 10:48:07;;;;;;;27.15;17.42;;;9.00;94.10;;;;;;6104157;23;20072;-86
2022/03/04 10:50:38;;;;;;;26.95;16.40;;;9.50;93.90;;;;;;6104643;23;20022;-86
2022/03/04 10:53:12;;;;;;;29.80;17.77;;;8.70;95.00;;;;;;6103092;23;20056;-87
2022/03/04 10:55:45;;;;;;;27.75;17.17;;;8.70;94.90;;;;;;6103050;23;20085;-87
2022/03/04 10:58:19;;;;;;;26.58;16.58;;;9.40;95.50;;;;;;6102627;23;20492;-87
2022/03/04 11:00:57;;;;;;;24.02;15.93;;;10.30;94.80;;;;;;6078652;23;20021;-87
2022/03/04 11:03:31;;;;;;;29.50;17.25;;;10.70;93.20;;;;;;6103125;23;20413;-87
2022/03/04 11:06:03;;;;;;;27.10;16.63;;;11.00;92.90;;;;;;6127228;23;20396;-87
2022/03/04 11:08:29;;;;;;;25.58;16.45;;;10.50;92.90;;;;;;6102882;23;20021;-87
2022/03/04 11:10:56;;;;;;;25.15;16.23;;;10.10;93.70;;;;;;6127054;23;20105;-87
2022/03/04 11:13:23;;;;;;;28.35;17.13;;;9.80;93.50;;;;;;6126688;23;20053;-87
2022/03/04 11:15:51;;;;;;;27.35;15.48;;;9.70;94.10;;;;;;6077738;23;20017;-87
2022/03/04 11:18:26;;;;;;;22.70;14.80;;;10.40;94.00;;;;;;6150994;23;20018;-87
2022/03/04 11:20:54;;;;;;;24.15;15.13;;;10.40;92.90;;;;;;6102229;23;20013;-87
2022/03/04 11:23:21;;;;;;;24.65;14.23;;;10.60;92.10;;;;;;6127141;23;20101;-87
2022/03/04 11:25:55;;;;;;;21.73;12.55;;;10.40;92.90;;;;;;6101993;23;20013;-89
2022/03/04 11:28:24;;;;;;;20.75;13.18;;;11.00;91.30;;;;;;6101806;23;20014;-87
2022/03/04 11:30:56;;;;;;;18.63;12.90;;;11.10;91.80;;;;;;6101149;23;20445;-87
2022/03/04 11:33:30;;;;;;;20.30;12.05;;;11.10;91.70;;;;;;6078712;23;20017;-87
2022/03/04 11:35:59;;;;;;;17.55;11.63;;;10.90;91.50;;;;;;6101090;23;20025;-87
2022/03/04 11:38:43;;;;;;;22.85;11.90;;;11.00;91.60;;;;;;6126234;23;20024;-87
2022/03/04 11:41:18;;;;;;;18.58;11.93;;;10.30;90.00;;;;;;6125773;23;20029;-87
2022/03/04 11:43:52;;;;;;;20.40;12.23;;;9.60;91.40;;;;;;6126142;23;20021;-87
2022/03/04 11:46:42;;;;;;;19.58;11.38;;;9.60;92.50;;;;;;6125881;23;20040;-86
2022/03/04 11:49:38;;;;;;;18.77;11.65;;;9.70;92.40;;;;;;6126213;23;20033;-87
2022/03/04 11:52:10;;;;;;;17.17;11.10;;;9.40;92.50;;;;;;6126005;23;20017;-87
2022/03/04 11:54:49;;;;;;;17.98;10.88;;;9.50;92.90;;;;;;6125724;23;20022;-87
2022/03/04 11:57:34;;;;;;;16.65;10.02;;;9.60;93.30;;;;;;6126619;23;20018;-87
2022/03/04 12:00:12;;;;;;;14.45;9.32;;;9.40;92.20;;;;;;6101774;23;20539;-87
2022/03/04 12:02:47;;;;;;;14.68;8.80;;;9.50;92.00;;;;;;6101991;23;20052;-87
2022/03/04 12:05:30;;;;;;;14.95;9.13;;;9.40;92.30;;;;;;6151022;23;20096;-87
2022/03/04 12:08:06;;;;;;;15.90;9.30;;;9.50;92.20;;;;;;6101911;23;20025;-87
2022/03/04 12:10:45;;;;;;;15.63;9.55;;;9.60;92.20;;;;;;6101989;23;20028;-88
2022/03/04 12:13:16;;;;;;;13.07;8.50;;;9.60;92.10;;;;;;6126342;23;20543;-87
2022/03/04 12:15:44;;;;;;;12.95;8.63;;;9.70;92.00;;;;;;6101767;23;20021;-88
2022/03/04 12:18:16;;;;;;;16.85;8.73;;;9.80;92.10;;;;;;6102193;23;20017;-87
2022/03/04 12:20:41;;;;;;;14.88;9.15;;;9.70;91.30;;;;;;6125986;23;20032;-87
2022/03/04 12:23:08;;;;;;;14.70;8.68;;;9.80;90.70;;;;;;6126673;23;20014;-88
2022/03/04 12:26:00;;;;;;;16.20;8.82;;;10.20;91.40;;;;;;6101655;23;20014;-87
2022/03/04 12:28:26;;;;;;;15.10;8.60;;;9.80;91.00;;;;;;6122326;23;20052;-87
2022/03/04 12:31:01;;;;;;;12.90;7.57;;;10.00;91.70;;;;;;6101412;23;20092;-87
2022/03/04 12:33:30;;;;;;;14.43;8.35;;;10.00;91.30;;;;;;6126457;23;20073;-87
2022/03/04 12:36:00;;;;;;;12.88;8.07;;;10.00;91.00;;;;;;6125234;23;20329;-88